sensor_id;sensor_type;location;lat;lon;timestamp;P1;durP1;ratioP1;P2;durP2;ratioP2
48100;SDS011;33878;47.442;18.916;2022-09-16T02:17:31;9.57;;;5.75;;
48100;SDS011;33878;47.442;18.916;2022-09-16T02:20:19;9.45;;;5.93;;
48100;SDS011;33878;47.442;18.916;2022-09-16T02:23:13;10.13;;;7.03;;
48100;SDS011;33878;47.442;18.916;2022-09-16T02:26:01;9.68;;;6.45;;
48100;SDS011;33878;47.442;18.916;2022-09-16T02:28:49;9.18;;;6.35;;
48100;SDS011;33878;47.442;18.916;2022-09-16T02:31:38;9.77;;;6.45;;
48100;SDS011;33878;47.442;18.916;2022-09-16T02:34:28;9.35;;;6.05;;
48100;SDS011;33878;47.442;18.916;2022-09-16T02:37:18;8.73;;;6.10;;
48100;SDS011;33878;47.442;18.916;2022-09-16T02:40:11;11.75;;;6.37;;
48100;SDS011;33878;47.442;18.916;2022-09-16T02:43:04;10.70;;;6.97;;
48100;SDS011;33878;47.442;18.916;2022-09-16T03:00:47;10.70;;;7.10;;
48100;SDS011;33878;47.442;18.916;2022-09-16T09:59:51;5.95;;;3.20;;
48100;SDS011;33878;47.442;18.916;2022-09-16T10:02:44;4.35;;;3.00;;
48100;SDS011;33878;47.442;18.916;2022-09-16T10:05:38;5.95;;;2.85;;
48100;SDS011;33878;47.442;18.916;2022-09-16T10:08:31;4.28;;;2.67;;
48100;SDS011;33878;47.442;18.916;2022-09-16T10:14:28;5.53;;;3.00;;
48100;SDS011;33878;47.442;18.916;2022-09-16T10:23:18;6.00;;;2.75;;
48100;SDS011;33878;47.442;18.916;2022-09-16T10:26:22;5.65;;;2.40;;
48100;SDS011;33878;47.442;18.916;2022-09-16T10:29:15;4.15;;;2.50;;
48100;SDS011;33878;47.442;18.916;2022-09-16T10:32:06;9.23;;;2.70;;
48100;SDS011;33878;47.442;18.916;2022-09-16T10:34:57;5.57;;;2.45;;
48100;SDS011;33878;47.442;18.916;2022-09-16T10:37:48;4.82;;;2.37;;
48100;SDS011;33878;47.442;18.916;2022-09-16T10:40:38;5.12;;;2.50;;
48100;SDS011;33878;47.442;18.916;2022-09-16T10:43:45;4.90;;;2.30;;
48100;SDS011;33878;47.442;18.916;2022-09-16T10:46:36;5.00;;;2.10;;
48100;SDS011;33878;47.442;18.916;2022-09-16T10:49:42;3.72;;;2.20;;
48100;SDS011;33878;47.442;18.916;2022-09-16T10:52:41;4.78;;;2.15;;
48100;SDS011;33878;47.442;18.916;2022-09-16T10:55:33;6.12;;;2.30;;
48100;SDS011;33878;47.442;18.916;2022-09-16T10:58:22;4.93;;;2.60;;
48100;SDS011;33878;47.442;18.916;2022-09-16T11:10:41;4.62;;;2.20;;
48100;SDS011;33878;47.442;18.916;2022-09-16T11:13:42;8.77;;;2.55;;
48100;SDS011;33878;47.442;18.916;2022-09-16T11:16:47;5.30;;;2.17;;
48100;SDS011;33878;47.442;18.916;2022-09-16T11:29:45;5.78;;;2.40;;
48100;SDS011;33878;47.442;18.916;2022-09-16T11:54:22;3.55;;;1.30;;
48100;SDS011;33878;47.442;18.916;2022-09-16T11:57:41;2.55;;;1.52;;
48100;SDS011;33878;47.442;18.916;2022-09-16T12:00:30;3.95;;;1.67;;
48100;SDS011;33878;47.442;18.916;2022-09-16T12:03:31;5.80;;;1.62;;
48100;SDS011;33878;47.442;18.916;2022-09-16T12:06:22;4.68;;;1.60;;
48100;SDS011;33878;47.442;18.916;2022-09-16T12:09:19;2.67;;;1.60;;
48100;SDS011;33878;47.442;18.916;2022-09-16T12:12:20;7.18;;;1.80;;
48100;SDS011;33878;47.442;18.916;2022-09-16T12:15:19;5.45;;;1.60;;
48100;SDS011;33878;47.442;18.916;2022-09-16T12:18:12;6.37;;;1.60;;
48100;SDS011;33878;47.442;18.916;2022-09-16T12:21:07;3.15;;;1.40;;
48100;SDS011;33878;47.442;18.916;2022-09-16T12:24:00;2.30;;;1.25;;
48100;SDS011;33878;47.442;18.916;2022-09-16T12:26:58;3.37;;;1.73;;
48100;SDS011;33878;47.442;18.916;2022-09-16T12:29:57;2.92;;;1.45;;
48100;SDS011;33878;47.442;18.916;2022-09-16T12:36:07;3.10;;;1.50;;
48100;SDS011;33878;47.442;18.916;2022-09-16T12:39:00;4.05;;;1.95;;
48100;SDS011;33878;47.442;18.916;2022-09-16T12:48:17;3.05;;;1.60;;
